createdAt,value
2022-12-03T00:01:57.233Z,4.07
2022-12-03T00:04:27.753Z,4.25
2022-12-03T00:06:58.266Z,4.32
2022-12-03T00:09:28.820Z,4.22
2022-12-03T00:12:01.804Z,3.80
2022-12-03T00:14:32.466Z,4.10
2022-12-03T00:17:02.977Z,3.83
2022-12-03T00:19:33.846Z,4.57
2022-12-03T00:22:04.489Z,4.32
2022-12-03T00:24:34.981Z,4.13
2022-12-03T00:27:06.624Z,4.18
2022-12-03T00:29:36.711Z,4.22
2022-12-03T00:32:07.787Z,3.90
2022-12-03T00:34:38.143Z,3.63
2022-12-03T00:37:08.571Z,4.28
2022-12-03T00:39:39.298Z,4.07
2022-12-03T00:42:11.249Z,4.05
2022-12-03T00:44:41.232Z,3.95
2022-12-03T00:47:12.352Z,3.75
2022-12-03T00:49:42.821Z,4.05
2022-12-03T00:52:12.807Z,3.67
2022-12-03T00:54:43.532Z,3.90
2022-12-03T00:57:16.234Z,3.80
2022-12-03T00:59:46.906Z,3.80
2022-12-03T01:02:17.698Z,5.50
2022-12-03T01:04:48.685Z,3.75
2022-12-03T01:07:19.414Z,3.88
2022-12-03T01:09:49.965Z,3.90
2022-12-03T01:12:22.679Z,3.75
2022-12-03T01:14:53.609Z,3.58
2022-12-03T01:17:24.051Z,3.80
2022-12-03T01:19:54.859Z,4.15
2022-12-03T01:22:25.172Z,3.70
2022-12-03T01:24:55.519Z,3.47
2022-12-03T01:27:28.424Z,3.80
2022-12-03T01:29:58.493Z,3.50
2022-12-03T01:32:27.046Z,4.00
2022-12-03T01:34:58.878Z,3.83
2022-12-03T01:37:30.828Z,3.90
2022-12-03T01:40:00.937Z,3.58
2022-12-03T01:42:38.221Z,3.42
2022-12-03T01:45:14.902Z,3.22
2022-12-03T01:47:45.428Z,3.50
2022-12-03T01:50:26.118Z,3.65
2022-12-03T01:53:00.532Z,3.40
2022-12-03T01:55:31.733Z,3.45
2022-12-03T01:58:04.854Z,3.25
2022-12-03T02:00:35.677Z,3.60
2022-12-03T02:03:15.253Z,3.50
2022-12-03T02:05:46.119Z,3.58
2022-12-03T02:08:33.324Z,3.25
2022-12-03T02:11:11.635Z,3.17
2022-12-03T02:13:44.432Z,3.33
2022-12-03T02:16:14.461Z,3.35
2022-12-03T02:18:46.044Z,3.28
2022-12-03T02:21:29.602Z,3.65
2022-12-03T02:24:10.391Z,3.53
2022-12-03T02:26:42.937Z,3.47
2022-12-03T02:29:13.002Z,3.50
2022-12-03T02:31:44.358Z,3.47
2022-12-03T02:34:39.007Z,3.05
2022-12-03T02:37:14.472Z,3.13
2022-12-03T02:39:53.099Z,3.25
2022-12-03T02:42:36.010Z,3.45
2022-12-03T02:45:13.277Z,3.35
2022-12-03T02:47:48.168Z,3.42
2022-12-03T02:50:23.246Z,3.30
2022-12-03T02:52:57.175Z,3.50
2022-12-03T02:55:34.924Z,4.13
2022-12-03T02:58:09.374Z,3.38
2022-12-03T03:00:41.514Z,3.45
2022-12-03T03:03:13.061Z,3.67
2022-12-03T03:05:45.832Z,3.40
2022-12-03T03:08:16.975Z,3.35
2022-12-03T03:10:50.184Z,4.05
2022-12-03T03:13:24.382Z,3.55
2022-12-03T03:15:54.290Z,3.63
2022-12-03T03:18:25.216Z,3.45
2022-12-03T03:20:56.393Z,3.67
2022-12-03T03:23:28.499Z,3.50
2022-12-03T03:26:02.863Z,3.65
2022-12-03T03:28:37.213Z,3.45
2022-12-03T03:31:10.623Z,3.75
2022-12-03T03:33:43.865Z,3.65
2022-12-03T03:36:16.373Z,3.60
2022-12-03T03:38:46.966Z,3.60
2022-12-03T03:41:18.943Z,3.47
2022-12-03T03:43:52.522Z,3.38
2022-12-03T03:46:23.267Z,3.35
2022-12-03T03:48:55.122Z,3.55
2022-12-03T03:51:25.881Z,3.35
2022-12-03T03:53:56.422Z,3.50
2022-12-03T03:56:27.595Z,3.63
2022-12-03T03:59:00.492Z,3.53
2022-12-03T04:01:33.429Z,3.63
2022-12-03T04:04:04.285Z,3.58
2022-12-03T04:06:34.775Z,3.60
2022-12-03T04:09:05.293Z,3.72
2022-12-03T04:11:52.184Z,3.47
2022-12-03T04:14:25.003Z,3.42
2022-12-03T04:16:55.643Z,3.75
2022-12-03T04:19:25.769Z,3.58
2022-12-03T04:22:12.736Z,3.63
2022-12-03T04:24:43.454Z,3.60
2022-12-03T04:27:30.494Z,3.47
2022-12-03T04:30:02.178Z,3.42
2022-12-03T04:32:49.141Z,3.67
2022-12-03T04:35:35.996Z,3.72
2022-12-03T04:38:06.219Z,3.30
2022-12-03T04:40:53.164Z,3.33
2022-12-03T04:43:23.325Z,3.60
2022-12-03T04:45:55.237Z,3.50
2022-12-03T04:48:26.098Z,3.92
2022-12-03T04:50:56.678Z,3.80
2022-12-03T04:53:26.874Z,3.60
2022-12-03T04:55:57.025Z,3.78
2022-12-03T04:58:27.875Z,3.83
2022-12-03T05:01:00.504Z,3.85
2022-12-03T05:03:31.176Z,3.97
2022-12-03T05:06:01.548Z,3.85
2022-12-03T05:08:31.503Z,3.55
2022-12-03T05:11:02.302Z,4.25
2022-12-03T05:13:32.675Z,3.70
2022-12-03T05:16:05.520Z,3.85
2022-12-03T05:18:36.009Z,3.70
2022-12-03T05:21:07.445Z,3.63
2022-12-03T05:23:37.372Z,3.60
2022-12-03T05:26:07.808Z,3.78
2022-12-03T05:28:38.213Z,3.72
2022-12-03T05:31:10.529Z,3.70
2022-12-03T05:33:44.460Z,4.25
2022-12-03T05:36:15.379Z,3.55
2022-12-03T05:38:45.922Z,3.58
2022-12-03T05:41:32.944Z,3.40
2022-12-03T05:44:03.444Z,3.38
2022-12-03T05:46:35.693Z,3.67
2022-12-03T05:49:06.387Z,3.70
2022-12-03T05:51:36.918Z,3.55
2022-12-03T05:54:07.736Z,3.58
2022-12-03T05:56:37.840Z,3.42
2022-12-03T05:59:08.907Z,3.50
2022-12-03T06:01:40.994Z,3.63
2022-12-03T06:04:11.225Z,3.08
2022-12-03T06:06:41.790Z,3.53
2022-12-03T06:09:12.510Z,3.08
2022-12-03T06:11:42.587Z,3.53
2022-12-03T06:14:13.404Z,3.55
2022-12-03T06:16:45.931Z,3.03
2022-12-03T06:19:16.307Z,3.25
2022-12-03T06:21:48.153Z,2.95
2022-12-03T06:24:18.923Z,2.80
2022-12-03T06:26:49.797Z,3.03
2022-12-03T06:29:20.443Z,2.67
2022-12-03T06:31:53.026Z,2.75
2022-12-03T06:34:23.551Z,3.30
2022-12-03T06:36:53.199Z,3.22
2022-12-03T06:39:23.470Z,3.13
2022-12-03T06:41:54.165Z,2.75
2022-12-03T06:44:24.333Z,2.72
2022-12-03T06:46:57.017Z,2.60
2022-12-03T06:49:27.151Z,2.88
2022-12-03T06:51:57.848Z,3.17
2022-12-03T06:54:28.268Z,3.10
2022-12-03T06:56:58.913Z,2.85
2022-12-03T06:59:29.176Z,2.90
2022-12-03T07:02:01.642Z,2.58
2022-12-03T07:04:31.761Z,2.63
2022-12-03T07:07:02.097Z,5.80
2022-12-03T07:09:32.957Z,2.55
2022-12-03T07:12:03.764Z,2.47
2022-12-03T07:14:34.318Z,2.35
2022-12-03T07:17:06.386Z,2.42
2022-12-03T07:19:37.049Z,3.70
2022-12-03T07:22:07.796Z,2.60
2022-12-03T07:24:38.373Z,2.20
2022-12-03T07:27:08.747Z,2.25
2022-12-03T07:29:39.728Z,2.85
2022-12-03T07:32:11.856Z,2.40
2022-12-03T07:34:42.622Z,2.03
2022-12-03T07:37:13.117Z,2.40
2022-12-03T07:39:43.705Z,2.08
2022-12-03T07:42:14.187Z,2.10
2022-12-03T07:44:44.783Z,1.88
2022-12-03T07:47:17.460Z,2.00
2022-12-03T07:49:47.807Z,2.22
2022-12-03T07:52:18.476Z,1.92
2022-12-03T07:54:48.515Z,1.85
2022-12-03T07:57:19.114Z,1.73
2022-12-03T07:59:49.197Z,2.05
2022-12-03T08:02:22.120Z,1.70
2022-12-03T08:04:53.191Z,2.03
2022-12-03T08:07:24.211Z,1.67
2022-12-03T08:09:54.873Z,1.75
2022-12-03T08:12:40.496Z,1.63
2022-12-03T08:15:16.075Z,1.60
2022-12-03T08:17:52.835Z,1.70
2022-12-03T08:20:26.070Z,1.63
2022-12-03T08:22:58.651Z,1.48
2022-12-03T08:25:32.732Z,1.45
2022-12-03T08:28:13.814Z,1.48
2022-12-03T08:30:44.962Z,1.13
2022-12-03T08:33:28.533Z,1.35
2022-12-03T08:35:59.014Z,1.10
2022-12-03T08:38:31.814Z,1.27
2022-12-03T08:41:02.480Z,1.08
2022-12-03T08:43:43.207Z,1.00
2022-12-03T08:46:21.334Z,1.40
2022-12-03T08:48:54.342Z,1.60
2022-12-03T08:51:27.080Z,0.93
2022-12-03T08:54:07.344Z,1.30
2022-12-03T08:56:39.552Z,1.20
2022-12-03T08:59:27.978Z,0.98
2022-12-03T09:02:00.919Z,1.10
2022-12-03T09:04:41.012Z,0.90
2022-12-03T09:07:11.956Z,0.85
2022-12-03T09:09:41.971Z,1.00
2022-12-03T09:12:12.801Z,1.15
2022-12-03T09:14:43.504Z,1.10
2022-12-03T09:17:13.964Z,1.10
2022-12-03T09:19:46.793Z,1.25
2022-12-03T09:22:17.781Z,0.90
2022-12-03T09:24:48.493Z,1.10
2022-12-03T09:27:19.341Z,1.30
2022-12-03T09:29:49.448Z,1.10
2022-12-03T09:32:19.709Z,0.90
2022-12-03T09:35:08.817Z,0.90
2022-12-03T09:37:39.384Z,1.00
2022-12-03T09:40:12.103Z,1.00
2022-12-03T09:42:42.912Z,1.20
2022-12-03T09:45:16.871Z,0.95
2022-12-03T09:47:51.873Z,1.00
2022-12-03T09:50:27.294Z,1.10
2022-12-03T09:53:01.506Z,1.30
2022-12-03T09:55:32.925Z,0.80
2022-12-03T09:58:05.986Z,0.93
2022-12-03T10:00:37.172Z,1.23
2022-12-03T10:03:10.463Z,1.20
2022-12-03T10:05:47.880Z,1.27
2022-12-03T10:08:22.939Z,1.75
2022-12-03T10:10:58.916Z,1.77
2022-12-03T10:13:32.619Z,1.65
2022-12-03T10:16:04.352Z,1.67
2022-12-03T10:18:41.546Z,1.80
2022-12-03T10:21:22.497Z,1.50
2022-12-03T10:23:55.422Z,1.88
2022-12-03T10:26:42.477Z,1.88
2022-12-03T10:29:17.388Z,1.85
2022-12-03T10:31:48.509Z,2.50
2022-12-03T10:34:30.937Z,1.83
2022-12-03T10:37:18.744Z,1.70
2022-12-03T10:40:02.212Z,1.65
2022-12-03T10:42:35.500Z,1.50
2022-12-03T10:45:26.725Z,1.77
2022-12-03T10:48:13.542Z,1.45
2022-12-03T10:50:53.551Z,1.65
2022-12-03T10:53:31.888Z,1.55
2022-12-03T10:56:06.313Z,1.60
2022-12-03T10:58:40.307Z,1.60
2022-12-03T11:01:20.732Z,1.80
2022-12-03T11:03:52.057Z,1.50
2022-12-03T11:06:24.884Z,1.48
2022-12-03T11:09:00.440Z,1.60
2022-12-03T11:11:35.065Z,1.27
2022-12-03T11:14:08.609Z,1.52
2022-12-03T11:17:12.015Z,1.58
2022-12-03T11:19:50.514Z,1.50
2022-12-03T11:22:43.585Z,1.33
2022-12-03T11:25:52.738Z,1.42
2022-12-03T11:28:56.333Z,1.48
2022-12-03T11:31:43.192Z,1.10
2022-12-03T11:34:50.501Z,1.30
2022-12-03T11:37:30.083Z,1.15
2022-12-03T11:40:39.667Z,1.30
2022-12-03T11:43:13.793Z,1.08
2022-12-03T11:45:43.911Z,1.20
2022-12-03T11:48:16.936Z,1.35
2022-12-03T11:50:53.705Z,1.08
2022-12-03T11:53:27.748Z,1.08
2022-12-03T11:56:09.372Z,1.20
2022-12-03T11:58:45.710Z,1.30
2022-12-03T12:01:19.391Z,1.00
2022-12-03T12:03:52.082Z,1.20
2022-12-03T12:06:23.617Z,1.27
2022-12-03T12:09:04.292Z,1.70
2022-12-03T12:11:37.880Z,1.40
2022-12-03T12:14:12.896Z,1.20
2022-12-03T12:16:55.472Z,1.50
2022-12-03T12:19:40.251Z,1.73
2022-12-03T12:22:33.050Z,1.30
2022-12-03T12:25:05.583Z,1.38
2022-12-03T12:27:45.642Z,1.42
2022-12-03T12:30:22.327Z,1.30
2022-12-03T12:32:56.463Z,1.42
2022-12-03T12:35:28.556Z,1.13
2022-12-03T12:38:04.767Z,1.75
2022-12-03T12:40:39.356Z,1.10
2022-12-03T12:43:24.521Z,1.40
2022-12-03T12:45:59.443Z,1.50
2022-12-03T12:48:36.416Z,1.00
2022-12-03T12:51:15.410Z,0.90
2022-12-03T12:53:45.355Z,1.05
2022-12-03T12:56:25.943Z,1.42
2022-12-03T12:58:57.243Z,1.08
2022-12-03T13:01:33.557Z,1.27
2022-12-03T13:04:03.938Z,1.23
2022-12-03T13:06:36.598Z,1.30
2022-12-03T13:09:11.694Z,1.73
2022-12-03T13:11:46.186Z,1.20
2022-12-03T13:14:22.881Z,1.30
2022-12-03T13:16:59.438Z,1.20
2022-12-03T13:19:32.703Z,1.00
2022-12-03T13:22:13.216Z,1.42
2022-12-03T13:24:48.138Z,1.25
2022-12-03T13:27:29.920Z,1.10
2022-12-03T13:30:04.347Z,1.05
2022-12-03T13:32:39.949Z,1.85
2022-12-03T13:35:36.183Z,1.20
2022-12-03T13:38:15.992Z,1.15
2022-12-03T13:40:46.019Z,1.05
2022-12-03T13:43:22.014Z,1.00
2022-12-03T13:45:55.634Z,1.13
2022-12-03T13:48:33.172Z,1.27
2022-12-03T13:51:21.521Z,1.25
2022-12-03T13:53:52.054Z,1.45
2022-12-03T13:56:30.092Z,1.05
2022-12-03T13:59:02.987Z,1.25
2022-12-03T14:01:33.248Z,1.10
2022-12-03T14:04:06.537Z,0.98
2022-12-03T14:06:36.645Z,1.00
2022-12-03T14:09:07.348Z,2.00
2022-12-03T14:11:54.314Z,0.80
2022-12-03T14:14:24.926Z,0.98
2022-12-03T14:16:59.912Z,1.13
2022-12-03T14:19:33.154Z,1.20
2022-12-03T14:22:03.208Z,0.77
2022-12-03T14:24:33.720Z,1.20
2022-12-03T14:27:04.066Z,1.20
2022-12-03T14:29:34.505Z,1.20
2022-12-03T14:32:05.217Z,1.38
2022-12-03T14:34:37.487Z,1.27
2022-12-03T14:37:08.017Z,1.23
2022-12-03T14:39:38.580Z,3.05
2022-12-03T14:42:17.068Z,1.38
2022-12-03T14:44:50.583Z,1.13
2022-12-03T14:47:24.270Z,1.85
2022-12-03T14:49:56.347Z,1.40
2022-12-03T14:52:27.060Z,1.30
2022-12-03T14:54:57.883Z,1.13
2022-12-03T14:57:28.678Z,1.48
2022-12-03T14:59:59.039Z,1.10
2022-12-03T15:02:30.851Z,1.08
2022-12-03T15:05:03.209Z,1.38
2022-12-03T15:07:33.215Z,1.10
2022-12-03T15:10:03.800Z,1.08
2022-12-03T15:12:34.348Z,1.33
2022-12-03T15:15:04.556Z,1.38
2022-12-03T15:17:34.717Z,2.38
2022-12-03T15:20:07.394Z,1.27
2022-12-03T15:22:37.456Z,1.05
2022-12-03T15:25:08.944Z,1.42
2022-12-03T15:27:39.340Z,1.55
2022-12-03T15:30:11.144Z,1.58
2022-12-03T15:32:41.341Z,2.63
2022-12-03T15:35:20.125Z,1.48
2022-12-03T15:37:50.302Z,1.55
2022-12-03T15:40:21.149Z,1.50
2022-12-03T15:42:51.281Z,1.27
2022-12-03T15:45:22.203Z,1.95
2022-12-03T15:47:52.560Z,1.45
2022-12-03T15:50:24.590Z,1.55
2022-12-03T15:52:54.435Z,1.48
2022-12-03T15:55:25.403Z,1.52
2022-12-03T15:57:56.148Z,1.60
2022-12-03T16:00:26.583Z,2.13
2022-12-03T16:02:56.766Z,1.42
2022-12-03T16:05:28.789Z,1.67
2022-12-03T16:07:59.107Z,1.70
2022-12-03T16:10:29.582Z,1.75
2022-12-03T16:12:59.431Z,1.63
2022-12-03T16:15:29.667Z,1.45
2022-12-03T16:17:59.210Z,1.42
2022-12-03T16:20:31.960Z,1.77
2022-12-03T16:23:02.169Z,1.58
2022-12-03T16:25:31.659Z,1.77
2022-12-03T16:28:02.177Z,1.67
2022-12-03T16:30:32.686Z,1.77
2022-12-03T16:33:03.478Z,1.75
2022-12-03T16:35:35.987Z,1.85
2022-12-03T16:38:09.230Z,2.00
2022-12-03T16:40:39.671Z,1.80
2022-12-03T16:43:11.060Z,1.92
2022-12-03T16:46:02.917Z,1.90
2022-12-03T16:48:33.543Z,1.80
2022-12-03T16:51:06.176Z,1.60
2022-12-03T16:53:36.862Z,1.70
2022-12-03T16:56:07.574Z,2.20
2022-12-03T16:58:38.382Z,2.03
2022-12-03T17:01:09.511Z,1.60
2022-12-03T17:03:40.444Z,1.90
2022-12-03T17:06:12.400Z,1.50
2022-12-03T17:08:48.792Z,1.83
2022-12-03T17:11:20.374Z,1.63
2022-12-03T17:13:50.836Z,1.85
2022-12-03T17:16:21.323Z,1.88
2022-12-03T17:18:51.283Z,1.73
2022-12-03T17:21:23.759Z,1.42
2022-12-03T17:23:54.411Z,2.10
2022-12-03T17:26:24.781Z,1.98
2022-12-03T17:28:55.448Z,2.03
2022-12-03T17:31:25.791Z,2.05
2022-12-03T17:33:57.836Z,1.77
2022-12-03T17:36:29.839Z,2.45
2022-12-03T17:38:59.761Z,2.30
2022-12-03T17:41:29.736Z,1.75
2022-12-03T17:43:59.942Z,2.00
2022-12-03T17:46:29.915Z,2.10
2022-12-03T17:49:00.381Z,3.03
2022-12-03T17:51:32.811Z,2.22
2022-12-03T17:54:03.008Z,2.00
2022-12-03T17:56:33.326Z,2.00
2022-12-03T17:59:04.120Z,1.80
2022-12-03T18:01:34.599Z,2.20
2022-12-03T18:04:06.269Z,1.90
2022-12-03T18:06:38.760Z,2.47
2022-12-03T18:09:09.337Z,2.08
2022-12-03T18:11:39.668Z,1.67
2022-12-03T18:14:10.128Z,2.03
2022-12-03T18:16:40.424Z,2.40
2022-12-03T18:19:11.239Z,2.13
2022-12-03T18:21:43.409Z,1.90
2022-12-03T18:24:13.519Z,2.30
2022-12-03T18:26:44.477Z,2.20
2022-12-03T18:29:14.939Z,1.80
2022-12-03T18:31:45.494Z,2.45
2022-12-03T18:34:15.754Z,2.08
2022-12-03T18:36:48.935Z,2.00
2022-12-03T18:39:29.794Z,1.90
2022-12-03T18:42:00.823Z,2.00
2022-12-03T18:44:30.778Z,2.08
2022-12-03T18:47:02.964Z,2.08
2022-12-03T18:49:33.137Z,1.95
2022-12-03T18:52:05.705Z,2.65
2022-12-03T18:54:35.641Z,2.40
2022-12-03T18:57:05.859Z,2.15
2022-12-03T18:59:36.347Z,2.00
2022-12-03T19:02:07.280Z,2.08
2022-12-03T19:04:36.987Z,2.10
2022-12-03T19:07:09.027Z,2.38
2022-12-03T19:09:39.486Z,2.08
2022-12-03T19:12:14.782Z,2.20
2022-12-03T19:14:45.510Z,2.17
2022-12-03T19:17:15.391Z,2.05
2022-12-03T19:19:45.484Z,2.00
2022-12-03T19:22:18.335Z,2.40
2022-12-03T19:24:48.855Z,2.20
2022-12-03T19:27:19.630Z,2.22
2022-12-03T19:29:52.247Z,1.83
2022-12-03T19:32:22.956Z,2.20
2022-12-03T19:34:53.692Z,2.72
2022-12-03T19:37:25.528Z,2.10
2022-12-03T19:39:56.575Z,2.30
2022-12-03T19:42:27.360Z,1.95
2022-12-03T19:44:57.881Z,2.78
2022-12-03T19:47:28.255Z,2.42
2022-12-03T19:49:58.719Z,2.47
2022-12-03T19:52:31.125Z,2.10
2022-12-03T19:55:02.492Z,2.58
2022-12-03T19:57:32.930Z,2.08
2022-12-03T20:00:02.812Z,2.22
2022-12-03T20:02:32.792Z,2.40
2022-12-03T20:05:03.455Z,2.10
2022-12-03T20:07:35.393Z,1.85
2022-12-03T20:10:06.313Z,3.53
2022-12-03T20:12:37.115Z,2.90
2022-12-03T20:15:08.901Z,1.95
2022-12-03T20:17:39.440Z,3.58
2022-12-03T20:20:11.653Z,2.00
2022-12-03T20:22:44.163Z,2.13
2022-12-03T20:25:14.402Z,1.77
2022-12-03T20:27:44.921Z,1.75
2022-12-03T20:30:16.092Z,2.20
2022-12-03T20:32:46.896Z,3.78
2022-12-03T20:35:17.392Z,2.33
2022-12-03T20:37:49.111Z,2.47
2022-12-03T20:40:19.055Z,1.92
2022-12-03T20:42:50.764Z,2.20
2022-12-03T20:45:21.250Z,2.00
2022-12-03T20:47:51.250Z,2.08
2022-12-03T20:50:21.926Z,2.15
2022-12-03T20:53:22.544Z,2.80
2022-12-03T20:55:43.813Z,1.95
2022-12-03T20:58:14.265Z,3.13
2022-12-03T21:00:44.787Z,2.63
2022-12-03T21:03:15.233Z,2.33
2022-12-03T21:05:46.327Z,2.05
2022-12-03T21:08:33.991Z,2.38
2022-12-03T21:11:11.437Z,1.98
2022-12-03T21:13:44.161Z,2.30
2022-12-03T21:16:17.236Z,1.92
2022-12-03T21:18:48.293Z,2.30
2022-12-03T21:21:21.857Z,2.20
2022-12-03T21:23:54.582Z,2.15
2022-12-03T21:26:25.718Z,2.50
2022-12-03T21:28:57.378Z,2.08
2022-12-03T21:31:31.849Z,2.03
2022-12-03T21:34:03.394Z,2.00
2022-12-03T21:36:34.446Z,2.03
2022-12-03T21:39:08.459Z,2.00
2022-12-03T21:41:38.465Z,2.03
2022-12-03T21:44:08.493Z,2.22
2022-12-03T21:47:10.360Z,2.10
2022-12-03T21:49:28.979Z,2.00
2022-12-03T21:51:58.933Z,1.70
2022-12-03T21:54:31.347Z,2.40
2022-12-03T21:57:01.811Z,1.80
2022-12-03T21:59:32.208Z,2.03
2022-12-03T22:02:02.894Z,2.20
2022-12-03T22:04:33.117Z,1.73
2022-12-03T22:07:03.683Z,2.22
2022-12-03T22:09:36.560Z,1.80
2022-12-03T22:12:08.551Z,1.88
2022-12-03T22:14:39.072Z,2.08
2022-12-03T22:17:09.208Z,1.55
2022-12-03T22:19:40.145Z,1.90
2022-12-03T22:22:10.535Z,1.80
2022-12-03T22:24:43.316Z,1.38
2022-12-03T22:27:13.483Z,1.73
2022-12-03T22:29:43.473Z,1.67
2022-12-03T22:32:14.033Z,1.70
2022-12-03T22:34:45.579Z,1.80
2022-12-03T22:37:15.795Z,1.63
2022-12-03T22:39:47.842Z,2.13
2022-12-03T22:42:18.454Z,1.88
2022-12-03T22:44:48.594Z,1.80
2022-12-03T22:47:19.223Z,1.60
2022-12-03T22:49:49.682Z,1.80
2022-12-03T22:52:19.657Z,1.77
2022-12-03T22:54:52.074Z,1.50
2022-12-03T22:57:22.731Z,1.60
2022-12-03T22:59:53.395Z,1.58
2022-12-03T23:02:24.358Z,1.67
2022-12-03T23:04:58.111Z,1.58
2022-12-03T23:07:28.469Z,1.90
2022-12-03T23:10:00.889Z,1.80
2022-12-03T23:12:31.322Z,1.75
2022-12-03T23:15:01.786Z,1.60
2022-12-03T23:17:32.413Z,1.60
2022-12-03T23:20:04.003Z,1.58
2022-12-03T23:22:34.485Z,2.15
2022-12-03T23:25:08.183Z,2.10
2022-12-03T23:27:38.638Z,1.77
2022-12-03T23:30:11.433Z,1.83
2022-12-03T23:32:42.387Z,2.83
2022-12-03T23:35:14.759Z,1.73
2022-12-03T23:37:46.830Z,2.70
2022-12-03T23:40:20.359Z,1.70
2022-12-03T23:42:50.797Z,1.73
2022-12-03T23:45:21.356Z,1.77
2022-12-03T23:47:57.887Z,2.42
2022-12-03T23:50:28.982Z,1.85
2022-12-03T23:52:58.995Z,2.03
2022-12-03T23:55:31.556Z,1.77
2022-12-03T23:58:02.206Z,1.80
